createdAt,value
2018-08-06T00:09:06.784Z,99.99
2018-08-06T00:20:06.581Z,99.99
2018-08-06T00:31:08.800Z,99.99
2018-08-06T00:42:10.083Z,99.99
2018-08-06T00:53:11.928Z,99.99
2018-08-06T01:04:14.035Z,99.99
2018-08-06T01:15:16.024Z,99.99
2018-08-06T01:26:17.554Z,99.99
2018-08-06T01:37:19.283Z,99.99
2018-08-06T01:48:20.906Z,99.99
2018-08-06T01:59:23.755Z,99.99
2018-08-06T02:10:25.516Z,99.99
2018-08-06T02:21:24.889Z,99.99
2018-08-06T02:32:26.844Z,99.99
2018-08-06T02:43:28.372Z,99.99
2018-08-06T02:54:27.233Z,99.99
2018-08-06T03:05:28.640Z,99.99
2018-08-06T03:16:30.038Z,99.99
2018-08-06T03:27:29.691Z,99.99
2018-08-06T03:38:32.273Z,99.99
2018-08-06T03:49:32.971Z,99.99
2018-08-06T04:00:35.137Z,99.99
2018-08-06T04:11:36.721Z,99.99
2018-08-06T04:22:39.284Z,99.99
2018-08-06T04:33:41.675Z,99.99
2018-08-06T04:44:43.142Z,99.99
2018-08-06T04:55:41.537Z,99.99
2018-08-06T05:06:44.662Z,99.99
2018-08-06T05:17:46.839Z,99.99
2018-08-06T05:28:49.470Z,99.99
2018-08-06T05:39:52.418Z,99.99
2018-08-06T05:50:54.550Z,99.99
2018-08-06T06:01:57.746Z,99.99
2018-08-06T06:12:57.618Z,99.99
2018-08-06T06:24:00.398Z,99.99
2018-08-06T06:35:01.131Z,99.99
2018-08-06T06:46:03.025Z,99.99
2018-08-06T06:57:04.520Z,99.99
2018-08-06T07:08:00.633Z,99.99
2018-08-06T07:18:59.199Z,99.99
2018-08-06T07:30:00.224Z,99.99
2018-08-06T07:40:59.302Z,99.99
2018-08-06T07:51:58.739Z,99.99
2018-08-06T08:02:56.336Z,99.19
2018-08-06T08:13:54.183Z,97.80
2018-08-06T08:24:56.304Z,97.96
2018-08-06T08:35:57.567Z,95.94
2018-08-06T08:46:58.222Z,92.33
2018-08-06T08:57:54.109Z,92.68
2018-08-06T09:08:55.449Z,92.83
2018-08-06T09:19:57.405Z,90.47
2018-08-06T09:31:00.073Z,90.77
2018-08-06T09:42:01.866Z,87.93
2018-08-06T09:53:00.335Z,86.21
2018-08-06T10:04:00.301Z,86.55
2018-08-06T10:15:02.223Z,86.27
2018-08-06T10:25:59.084Z,85.34
2018-08-06T10:37:02.585Z,82.67
2018-08-06T10:48:03.053Z,82.33
2018-08-06T10:59:06.203Z,81.76
2018-08-06T11:10:05.297Z,86.76
2018-08-06T11:21:06.894Z,79.63
2018-08-06T11:32:09.093Z,78.38
2018-08-06T11:43:07.540Z,76.42
2018-08-06T11:54:00.661Z,73.91
2018-08-06T12:04:59.841Z,74.30
2018-08-06T12:15:57.122Z,73.56
2018-08-06T12:26:52.216Z,75.74
2018-08-06T12:37:47.896Z,77.94
2018-08-06T12:48:42.447Z,74.90
2018-08-06T12:59:44.321Z,68.41
2018-08-06T13:10:41.978Z,72.47
2018-08-06T13:21:37.337Z,71.50
2018-08-06T13:32:33.349Z,68.79
2018-08-06T13:43:33.342Z,68.87
2018-08-06T13:54:32.805Z,68.86
2018-08-06T14:05:33.063Z,67.86
2018-08-06T14:16:34.574Z,64.33
2018-08-06T14:27:20.425Z,67.28
2018-08-06T14:38:05.305Z,66.63
2018-08-06T14:48:50.390Z,69.91
2018-08-06T14:59:31.549Z,69.76
2018-08-06T15:10:18.305Z,66.60
2018-08-06T15:21:02.663Z,67.25
2018-08-06T15:31:45.726Z,69.04
2018-08-06T15:42:44.243Z,69.49
2018-08-06T15:53:36.902Z,69.34
2018-08-06T16:04:35.784Z,73.41
2018-08-06T16:15:36.156Z,78.74
2018-08-06T16:26:07.909Z,76.82
2018-08-06T16:37:07.132Z,78.82
2018-08-06T16:48:06.845Z,77.19
2018-08-06T16:59:03.732Z,80.41
2018-08-06T17:10:01.760Z,84.42
2018-08-06T17:21:00.729Z,86.13
2018-08-06T17:31:56.793Z,86.21
2018-08-06T17:42:51.639Z,89.90
2018-08-06T17:53:50.948Z,92.59
2018-08-06T18:04:49.639Z,96.19
2018-08-06T18:15:50.270Z,99.93
2018-08-06T18:26:45.374Z,99.99
2018-08-06T18:37:41.079Z,99.99
2018-08-06T18:48:41.048Z,99.99
2018-08-06T18:59:41.119Z,99.99
2018-08-06T19:10:34.540Z,99.99
2018-08-06T19:21:34.801Z,99.99
2018-08-06T19:32:34.514Z,99.99
2018-08-06T19:43:34.584Z,99.99
2018-08-06T19:54:30.176Z,99.99
2018-08-06T20:05:31.252Z,99.99
2018-08-06T20:16:28.026Z,99.99
2018-08-06T20:27:25.003Z,99.99
2018-08-06T20:38:24.327Z,99.99
2018-08-06T20:49:23.824Z,99.99
2018-08-06T21:00:26.229Z,99.99
2018-08-06T21:11:29.662Z,99.99
2018-08-06T21:22:30.610Z,99.99
2018-08-06T21:33:31.177Z,99.99
2018-08-06T21:44:32.994Z,99.99
2018-08-06T21:55:35.020Z,99.99
2018-08-06T22:06:36.226Z,99.99
2018-08-06T22:17:36.770Z,99.99
2018-08-06T22:28:37.492Z,99.99
2018-08-06T22:39:38.788Z,99.99
2018-08-06T22:50:35.949Z,99.99
2018-08-06T23:01:36.312Z,99.99
2018-08-06T23:12:37.488Z,99.99
2018-08-06T23:23:37.868Z,99.99
2018-08-06T23:34:36.588Z,99.99
2018-08-06T23:45:39.252Z,99.99
2018-08-06T23:56:39.789Z,99.99
